Alma, Mississippi
Current Conditions -  °F | °C
As of 12:53 PM on Thursday 23 Oct 2014 (Local Time) from KTUP Reporting Station
Clear Clear  
Wind Chill: 64°   Ceiling: Unl
Heat Index: 64°   Visibility: 10mi
Dew Point: 44°   Wind: 5mph
Humidity: 48%   Direction: NA
Pressure: 30.15"   Gusts: NA
Location:  34.433°N, 88.7018°W
Report Text: KTUP 231753Z VRB04KT 10SM CLR 18/07 A3015 RMK AO2 SLP208 T01780067 10183 20044 58016
Loading
Personal Weather Stations






























Interactive Weather Map New forecast layout! Learn more

10-Day Weather Forecast

Advertisements
Track Severe Weather on mobile